createdAt,value
2018-12-06T00:00:51.326Z,11.80
2018-12-06T00:03:19.850Z,11.78
2018-12-06T00:05:48.361Z,11.84
2018-12-06T00:08:18.228Z,11.84
2018-12-06T00:10:46.785Z,11.85
2018-12-06T00:13:15.281Z,11.85
2018-12-06T00:15:43.775Z,11.77
2018-12-06T00:18:12.353Z,11.79
2018-12-06T00:20:40.844Z,11.76
2018-12-06T00:23:09.328Z,11.78
2018-12-06T00:25:37.857Z,11.78
2018-12-06T00:28:06.350Z,11.79
2018-12-06T00:30:39.681Z,11.84
2018-12-06T00:33:08.227Z,11.83
2018-12-06T00:35:36.741Z,11.89
2018-12-06T00:38:05.212Z,11.76
2018-12-06T00:40:33.729Z,11.83
2018-12-06T00:43:02.247Z,11.86
2018-12-06T00:45:30.810Z,11.86
2018-12-06T00:47:59.287Z,11.89
2018-12-06T00:50:27.925Z,11.90
2018-12-06T00:52:56.462Z,11.90
2018-12-06T00:55:24.960Z,11.77
2018-12-06T00:57:53.457Z,11.89
2018-12-06T01:00:22.046Z,11.85
2018-12-06T01:02:50.519Z,11.87
2018-12-06T01:05:19.023Z,11.92
2018-12-06T01:07:47.484Z,11.99
2018-12-06T01:10:16.090Z,11.98
2018-12-06T01:12:44.599Z,11.94
2018-12-06T01:15:13.119Z,12.02
2018-12-06T01:17:41.650Z,12.05
2018-12-06T01:20:10.416Z,12.07
2018-12-06T01:22:38.920Z,12.06
2018-12-06T01:25:07.449Z,12.06
2018-12-06T01:27:36.803Z,12.13
2018-12-06T01:30:05.512Z,12.12
2018-12-06T01:32:34.017Z,12.11
2018-12-06T01:35:04.800Z,12.08
2018-12-06T01:37:33.323Z,12.14
2018-12-06T01:40:01.795Z,12.14
2018-12-06T01:42:30.537Z,12.14
2018-12-06T01:44:59.026Z,12.12
2018-12-06T01:47:27.529Z,12.20
2018-12-06T01:49:56.059Z,12.16
2018-12-06T01:52:24.620Z,12.24
2018-12-06T01:54:53.127Z,12.24
2018-12-06T01:57:21.739Z,12.28
2018-12-06T01:59:50.190Z,12.25
2018-12-06T02:02:18.707Z,12.25
2018-12-06T02:04:47.182Z,12.32
2018-12-06T02:07:15.669Z,12.31
2018-12-06T02:09:44.206Z,12.31
2018-12-06T02:12:12.726Z,12.28
2018-12-06T02:14:41.231Z,12.32
2018-12-06T02:17:09.803Z,12.27
2018-12-06T02:19:38.280Z,12.29
2018-12-06T02:22:06.764Z,12.33
2018-12-06T02:24:35.303Z,12.30
2018-12-06T02:27:03.959Z,12.30
2018-12-06T02:29:37.860Z,12.34
2018-12-06T02:32:06.427Z,12.32
2018-12-06T02:34:34.905Z,12.32
2018-12-06T02:37:03.435Z,12.36
2018-12-06T02:39:31.904Z,12.33
2018-12-06T02:42:00.418Z,12.38
2018-12-06T02:44:28.899Z,12.39
2018-12-06T02:46:57.938Z,12.41
2018-12-06T02:49:26.530Z,12.40
2018-12-06T02:51:55.104Z,12.44
2018-12-06T02:54:23.668Z,12.50
2018-12-06T02:56:52.227Z,12.51
2018-12-06T02:59:20.676Z,12.61
2018-12-06T03:01:49.194Z,12.67
2018-12-06T03:04:17.793Z,12.70
2018-12-06T03:06:46.334Z,12.70
2018-12-06T03:09:14.850Z,12.69
2018-12-06T03:11:43.427Z,12.67
2018-12-06T03:14:11.983Z,12.69
2018-12-06T03:16:41.047Z,12.73
2018-12-06T03:19:09.483Z,12.73
2018-12-06T03:21:38.039Z,12.70
2018-12-06T03:24:06.542Z,12.60
2018-12-06T03:26:35.119Z,12.57
2018-12-06T03:29:03.598Z,12.58
2018-12-06T03:31:32.140Z,12.61
2018-12-06T03:34:00.648Z,12.52
2018-12-06T03:36:29.190Z,12.67
2018-12-06T03:38:57.647Z,12.69
2018-12-06T03:41:26.280Z,12.73
2018-12-06T03:43:54.794Z,12.70
2018-12-06T03:46:23.273Z,12.67
2018-12-06T03:48:51.735Z,12.67
2018-12-06T03:51:20.254Z,12.75
2018-12-06T03:53:48.771Z,12.81
2018-12-06T03:56:17.309Z,12.83
2018-12-06T03:58:45.776Z,12.85
2018-12-06T04:01:14.280Z,12.85
2018-12-06T04:03:42.797Z,12.85
2018-12-06T04:06:11.379Z,12.87
2018-12-06T04:08:39.872Z,12.86
2018-12-06T04:11:08.412Z,12.91
2018-12-06T04:13:36.874Z,12.95
2018-12-06T04:16:05.353Z,12.94
2018-12-06T04:18:33.856Z,12.96
2018-12-06T04:21:02.362Z,12.90
2018-12-06T04:23:30.943Z,12.95
2018-12-06T04:25:59.404Z,12.95
2018-12-06T04:28:27.879Z,12.96
2018-12-06T04:30:56.362Z,12.99
2018-12-06T04:33:24.860Z,12.99
2018-12-06T04:35:53.288Z,13.00
2018-12-06T04:38:21.776Z,13.04
2018-12-06T04:40:50.254Z,13.10
2018-12-06T04:43:18.748Z,13.14
2018-12-06T04:45:47.257Z,13.12
2018-12-06T04:48:21.872Z,13.11
2018-12-06T04:50:46.314Z,13.11
2018-12-06T04:53:14.873Z,13.03
2018-12-06T04:55:43.481Z,13.09
2018-12-06T04:58:12.172Z,13.05
2018-12-06T05:00:41.664Z,13.08
2018-12-06T05:03:12.518Z,13.08
2018-12-06T05:05:41.134Z,13.07
2018-12-06T05:08:09.748Z,13.08
2018-12-06T05:10:38.370Z,13.09
2018-12-06T05:13:06.858Z,13.05
2018-12-06T05:15:35.429Z,13.07
2018-12-06T05:18:03.974Z,13.00
2018-12-06T05:20:32.546Z,12.96
2018-12-06T05:23:01.683Z,12.98
2018-12-06T05:25:30.392Z,12.94
2018-12-06T05:27:59.068Z,12.94
2018-12-06T05:30:27.709Z,12.80
2018-12-06T05:32:56.225Z,12.80
2018-12-06T05:35:24.703Z,12.80
2018-12-06T05:37:53.215Z,12.83
2018-12-06T05:40:21.791Z,12.81
2018-12-06T05:42:50.367Z,12.81
2018-12-06T05:45:18.886Z,12.83
2018-12-06T05:47:47.412Z,12.81
2018-12-06T05:50:15.943Z,12.82
2018-12-06T05:52:44.494Z,12.83
2018-12-06T05:55:12.998Z,12.84
2018-12-06T05:57:41.554Z,12.88
2018-12-06T06:00:10.222Z,12.91
2018-12-06T06:02:38.761Z,12.94
2018-12-06T06:05:07.669Z,12.95
2018-12-06T06:07:36.275Z,12.99
2018-12-06T06:10:05.091Z,13.03
2018-12-06T06:15:50.210Z,13.10
2018-12-06T06:18:18.755Z,13.15
2018-12-06T06:20:47.369Z,13.19
2018-12-06T06:23:15.992Z,13.21
2018-12-06T06:25:44.571Z,13.20
2018-12-06T06:28:12.989Z,13.09
2018-12-06T06:30:41.453Z,13.25
2018-12-06T06:33:10.014Z,13.28
2018-12-06T06:35:39.090Z,13.30
2018-12-06T06:38:07.637Z,13.33
2018-12-06T06:40:36.139Z,13.32
2018-12-06T06:43:04.566Z,13.39
2018-12-06T06:45:33.192Z,13.41
2018-12-06T06:48:01.672Z,13.47
2018-12-06T06:50:30.206Z,13.47
2018-12-06T06:52:58.847Z,13.51
2018-12-06T06:55:27.350Z,13.55
2018-12-06T06:58:01.805Z,13.55
2018-12-06T07:00:30.374Z,13.56
2018-12-06T07:02:58.943Z,13.61
2018-12-06T07:05:27.448Z,13.61
2018-12-06T07:07:55.931Z,13.58
2018-12-06T07:10:24.380Z,13.59
2018-12-06T07:12:52.826Z,13.62
2018-12-06T07:15:21.335Z,13.63
2018-12-06T07:17:50.250Z,13.64
2018-12-06T07:20:18.778Z,13.68
2018-12-06T07:22:47.268Z,13.61
2018-12-06T07:25:15.788Z,13.56
2018-12-06T07:27:44.307Z,13.58
2018-12-06T07:30:12.826Z,13.64
2018-12-06T07:32:41.442Z,13.70
2018-12-06T07:35:09.909Z,13.78
2018-12-06T07:37:38.371Z,13.82
2018-12-06T07:40:06.922Z,13.85
2018-12-06T07:42:35.384Z,13.87
2018-12-06T07:45:03.920Z,13.87
2018-12-06T07:47:32.379Z,13.87
2018-12-06T07:50:00.930Z,13.86
2018-12-06T07:52:29.652Z,13.84
2018-12-06T07:54:58.202Z,13.84
2018-12-06T07:57:26.729Z,13.81
2018-12-06T07:59:55.350Z,13.84
2018-12-06T08:02:23.830Z,13.87
2018-12-06T08:04:52.403Z,13.88
2018-12-06T08:07:20.886Z,13.90
2018-12-06T08:09:49.430Z,13.87
2018-12-06T08:12:17.998Z,13.85
2018-12-06T08:14:56.438Z,13.84
2018-12-06T08:17:24.952Z,13.88
2018-12-06T08:19:53.528Z,13.90
2018-12-06T08:22:21.972Z,13.94
2018-12-06T08:24:50.611Z,13.92
2018-12-06T08:27:19.079Z,13.92
2018-12-06T08:29:47.562Z,13.96
2018-12-06T08:32:16.009Z,14.05
2018-12-06T08:34:44.507Z,14.12
2018-12-06T08:37:13.019Z,14.14
2018-12-06T08:39:41.561Z,14.18
2018-12-06T08:42:10.104Z,14.21
2018-12-06T08:44:38.634Z,14.29
2018-12-06T08:47:08.164Z,14.33
2018-12-06T08:49:36.733Z,14.37
2018-12-06T08:52:05.265Z,14.38
2018-12-06T08:54:33.743Z,14.43
2018-12-06T08:57:02.261Z,14.44
2018-12-06T08:59:30.783Z,14.43
2018-12-06T09:01:59.321Z,14.45
2018-12-06T09:04:27.848Z,14.49
2018-12-06T09:06:56.441Z,14.51
2018-12-06T09:09:24.999Z,14.55
2018-12-06T09:11:53.535Z,14.62
2018-12-06T09:14:22.070Z,14.64
2018-12-06T09:16:50.617Z,14.67
2018-12-06T09:19:19.050Z,14.69
2018-12-06T09:21:47.544Z,14.72
2018-12-06T09:24:16.022Z,14.76
2018-12-06T09:26:44.571Z,14.80
2018-12-06T09:29:13.044Z,14.88
2018-12-06T09:31:41.557Z,14.89
2018-12-06T09:34:10.060Z,14.92
2018-12-06T09:36:39.212Z,14.93
2018-12-06T09:39:09.831Z,14.95
2018-12-06T09:41:38.399Z,14.99
2018-12-06T09:44:06.953Z,15.02
2018-12-06T09:46:35.567Z,15.04
2018-12-06T09:49:05.097Z,15.03
2018-12-06T09:51:33.789Z,15.06
2018-12-06T09:54:02.375Z,15.12
2018-12-06T09:56:30.863Z,15.19
2018-12-06T09:58:59.326Z,15.22
2018-12-06T10:01:27.839Z,15.27
2018-12-06T10:03:56.323Z,15.33
2018-12-06T10:06:24.967Z,15.35
2018-12-06T10:08:53.503Z,15.41
2018-12-06T10:11:22.206Z,15.45
2018-12-06T10:13:50.721Z,15.48
2018-12-06T10:16:19.542Z,15.46
2018-12-06T10:18:48.087Z,15.47
2018-12-06T10:21:16.707Z,15.46
2018-12-06T10:23:45.248Z,15.46
2018-12-06T10:26:13.776Z,15.50
2018-12-06T10:28:42.320Z,15.54
2018-12-06T10:31:10.920Z,15.57
2018-12-06T10:33:39.427Z,15.60
2018-12-06T10:36:08.022Z,15.61
2018-12-06T10:38:36.544Z,15.58
2018-12-06T10:41:05.208Z,15.59
2018-12-06T10:43:33.908Z,15.62
2018-12-06T10:46:02.494Z,14.88
2018-12-06T10:48:31.171Z,15.72
2018-12-06T10:52:05.415Z,15.76
2018-12-06T10:54:33.994Z,15.75
2018-12-06T10:57:02.961Z,15.76
2018-12-06T10:59:31.545Z,15.76
2018-12-06T11:02:07.442Z,15.79
2018-12-06T11:04:37.191Z,15.82
2018-12-06T11:07:06.965Z,15.85
2018-12-06T11:09:35.743Z,15.86
2018-12-06T11:12:04.248Z,15.86
2018-12-06T11:14:32.826Z,15.87
2018-12-06T11:17:01.362Z,15.90
2018-12-06T11:19:29.865Z,15.98
2018-12-06T11:21:58.540Z,16.04
2018-12-06T11:24:27.053Z,16.06
2018-12-06T11:26:55.621Z,16.08
2018-12-06T11:29:24.136Z,16.09
2018-12-06T11:31:52.703Z,16.06
2018-12-06T11:34:21.483Z,16.08
2018-12-06T11:36:49.975Z,16.07
2018-12-06T11:39:18.507Z,16.11
2018-12-06T11:41:47.100Z,16.15
2018-12-06T11:44:15.631Z,16.18
2018-12-06T11:46:44.095Z,16.16
2018-12-06T11:49:12.641Z,16.10
2018-12-06T11:51:41.155Z,16.06
2018-12-06T11:54:09.670Z,16.08
2018-12-06T11:56:38.224Z,16.03
2018-12-06T11:59:06.768Z,15.96
2018-12-06T12:01:36.199Z,15.96
2018-12-06T12:04:08.922Z,15.98
2018-12-06T12:06:37.668Z,15.96
2018-12-06T12:09:08.696Z,15.94
2018-12-06T12:11:37.342Z,15.95
2018-12-06T12:14:06.458Z,15.94
2018-12-06T12:16:35.052Z,15.94
2018-12-06T12:19:03.588Z,15.94
2018-12-06T12:21:32.121Z,15.92
2018-12-06T12:24:00.687Z,15.92
2018-12-06T12:26:29.171Z,15.88
2018-12-06T12:28:57.801Z,15.88
2018-12-06T12:31:26.482Z,15.87
2018-12-06T12:33:55.187Z,15.88
2018-12-06T12:36:23.845Z,15.90
2018-12-06T12:38:52.400Z,15.89
2018-12-06T12:41:21.019Z,15.91
2018-12-06T12:43:49.715Z,15.90
2018-12-06T12:46:18.333Z,15.94
2018-12-06T12:48:46.912Z,15.97
2018-12-06T12:51:15.471Z,16.01
2018-12-06T12:53:44.111Z,16.05
2018-12-06T12:56:12.862Z,16.08
2018-12-06T12:58:41.559Z,16.14
2018-12-06T13:01:10.153Z,16.17
2018-12-06T13:03:38.961Z,16.27
2018-12-06T13:06:07.617Z,16.34
2018-12-06T13:08:36.893Z,16.37
2018-12-06T13:11:06.013Z,16.44
2018-12-06T13:13:35.214Z,16.47
2018-12-06T13:16:04.285Z,16.50
2018-12-06T13:18:33.103Z,16.48
2018-12-06T13:21:02.316Z,16.49
2018-12-06T13:23:30.843Z,16.52
2018-12-06T13:25:59.665Z,16.48
2018-12-06T13:28:28.292Z,16.46
2018-12-06T13:30:56.922Z,16.46
2018-12-06T13:33:25.739Z,16.46
2018-12-06T13:35:54.387Z,16.43
2018-12-06T13:38:23.006Z,16.43
2018-12-06T13:40:51.667Z,16.38
2018-12-06T13:43:20.318Z,16.40
2018-12-06T13:45:49.007Z,16.40
2018-12-06T13:48:17.681Z,16.39
2018-12-06T13:50:46.316Z,16.38
2018-12-06T13:53:14.990Z,16.38
2018-12-06T13:55:43.607Z,16.37
2018-12-06T13:58:12.431Z,16.38
2018-12-06T14:00:41.301Z,16.36
2018-12-06T14:03:09.935Z,16.37
2018-12-06T14:05:38.540Z,16.37
2018-12-06T14:08:07.038Z,16.35
2018-12-06T14:10:35.729Z,16.36
2018-12-06T14:13:04.580Z,16.37
2018-12-06T14:15:33.273Z,16.37
2018-12-06T14:18:01.822Z,16.37
2018-12-06T14:20:30.660Z,16.34
2018-12-06T14:23:01.785Z,16.35
2018-12-06T14:25:30.680Z,16.39
2018-12-06T14:27:59.486Z,16.41
2018-12-06T14:30:28.186Z,16.39
2018-12-06T14:32:56.817Z,16.38
2018-12-06T14:35:25.710Z,16.36
2018-12-06T14:37:54.279Z,16.35
2018-12-06T14:40:22.900Z,16.34
2018-12-06T14:42:51.587Z,16.33
2018-12-06T14:45:20.187Z,16.34
2018-12-06T14:47:48.874Z,16.34
2018-12-06T14:50:17.328Z,16.31
2018-12-06T14:52:45.870Z,16.31
2018-12-06T14:55:14.430Z,16.29
2018-12-06T14:57:43.170Z,16.28
2018-12-06T15:00:11.824Z,16.23
2018-12-06T15:02:40.523Z,16.20
2018-12-06T15:05:10.151Z,16.20
2018-12-06T15:07:38.715Z,16.20
2018-12-06T15:10:08.109Z,15.47
2018-12-06T15:12:36.844Z,15.92
2018-12-06T15:15:05.834Z,16.19
2018-12-06T15:17:34.483Z,16.17
2018-12-06T15:20:03.135Z,16.12
2018-12-06T15:22:31.787Z,16.14
2018-12-06T15:25:00.920Z,16.09
2018-12-06T15:27:29.718Z,16.12
2018-12-06T15:29:58.670Z,16.09
2018-12-06T15:32:27.291Z,16.10
2018-12-06T15:34:55.911Z,16.12
2018-12-06T15:37:24.494Z,16.13
2018-12-06T15:39:53.027Z,16.11
2018-12-06T15:42:21.556Z,16.13
2018-12-06T15:44:50.158Z,16.14
2018-12-06T15:47:18.748Z,16.15
2018-12-06T15:49:47.407Z,16.17
2018-12-06T15:52:16.089Z,16.17
2018-12-06T15:54:44.623Z,16.15
2018-12-06T15:57:13.320Z,16.16
2018-12-06T15:59:41.807Z,16.18
2018-12-06T16:02:10.442Z,16.16
2018-12-06T16:04:38.996Z,16.17
2018-12-06T16:07:07.754Z,16.16
2018-12-06T16:09:36.499Z,16.11
2018-12-06T16:12:05.078Z,16.12
2018-12-06T16:14:33.767Z,16.12
2018-12-06T16:17:02.354Z,16.09
2018-12-06T16:19:31.005Z,16.09
2018-12-06T16:21:59.639Z,16.05
2018-12-06T16:24:28.229Z,16.07
2018-12-06T16:26:56.791Z,16.02
2018-12-06T16:29:25.364Z,16.04
2018-12-06T16:31:53.891Z,16.05
2018-12-06T16:34:22.672Z,16.04
2018-12-06T16:36:51.259Z,16.05
2018-12-06T16:39:19.801Z,16.07
2018-12-06T16:41:48.417Z,16.08
2018-12-06T16:44:16.942Z,16.10
2018-12-06T16:46:45.757Z,16.12
2018-12-06T16:49:14.373Z,16.14
2018-12-06T16:51:43.033Z,16.16
2018-12-06T16:54:11.642Z,16.20
2018-12-06T16:56:40.383Z,16.17
2018-12-06T16:59:08.916Z,16.15
2018-12-06T17:01:37.496Z,16.13
2018-12-06T17:04:06.168Z,16.15
2018-12-06T17:06:34.741Z,16.16
2018-12-06T17:09:04.164Z,16.16
2018-12-06T17:11:33.085Z,16.15
2018-12-06T17:14:02.683Z,16.14
2018-12-06T17:16:31.768Z,16.17
2018-12-06T17:19:00.294Z,16.16
2018-12-06T17:21:28.739Z,16.13
2018-12-06T17:23:57.288Z,16.14
2018-12-06T17:26:25.967Z,16.15
2018-12-06T17:28:54.659Z,16.17
2018-12-06T17:31:23.225Z,16.13
2018-12-06T17:33:51.761Z,16.15
2018-12-06T17:36:20.447Z,16.17
2018-12-06T17:38:49.098Z,16.15
2018-12-06T17:41:17.656Z,16.14
2018-12-06T17:43:46.539Z,16.15
2018-12-06T17:46:15.065Z,16.15
2018-12-06T17:48:43.752Z,16.17
2018-12-06T17:51:12.328Z,16.14
2018-12-06T17:53:40.845Z,16.14
2018-12-06T17:56:09.463Z,16.17
2018-12-06T17:58:38.003Z,16.19
2018-12-06T18:01:06.498Z,16.23
2018-12-06T18:03:35.004Z,16.19
2018-12-06T18:06:03.488Z,16.19
2018-12-06T18:08:32.276Z,16.21
2018-12-06T18:11:01.034Z,16.19
2018-12-06T18:13:29.556Z,16.21
2018-12-06T18:15:58.044Z,16.22
2018-12-06T18:18:26.526Z,16.22
2018-12-06T18:20:55.123Z,16.26
2018-12-06T18:23:23.590Z,16.27
2018-12-06T18:25:52.151Z,16.28
2018-12-06T18:28:20.760Z,16.30
2018-12-06T18:30:49.338Z,16.30
2018-12-06T18:33:17.826Z,16.33
2018-12-06T18:35:46.310Z,16.34
2018-12-06T18:38:14.851Z,16.33
2018-12-06T18:40:43.476Z,16.36
2018-12-06T18:43:12.198Z,16.36
2018-12-06T18:45:40.806Z,16.38
2018-12-06T18:48:09.294Z,16.38
2018-12-06T18:50:37.794Z,16.37
2018-12-06T18:53:06.246Z,16.37
2018-12-06T18:55:34.855Z,16.35
2018-12-06T18:58:03.374Z,16.34
2018-12-06T19:00:31.862Z,16.30
2018-12-06T19:03:00.394Z,16.26
2018-12-06T19:05:28.951Z,16.28
2018-12-06T19:07:57.511Z,16.29
2018-12-06T19:10:26.081Z,16.28
2018-12-06T19:12:54.631Z,16.27
2018-12-06T19:15:23.213Z,16.26
2018-12-06T19:17:51.731Z,16.19
2018-12-06T19:20:20.232Z,16.17
2018-12-06T19:22:48.767Z,16.16
2018-12-06T19:25:17.350Z,16.12
2018-12-06T19:27:45.938Z,16.08
2018-12-06T19:30:14.463Z,16.11
2018-12-06T19:32:43.064Z,16.12
2018-12-06T19:35:11.656Z,16.13
2018-12-06T19:37:41.085Z,16.09
2018-12-06T19:40:09.760Z,16.10
2018-12-06T19:42:38.970Z,16.09
2018-12-06T19:45:07.966Z,16.14
2018-12-06T19:47:36.549Z,16.15
2018-12-06T19:50:06.143Z,16.14
2018-12-06T19:52:34.717Z,16.15
2018-12-06T19:55:03.257Z,15.90
2018-12-06T19:57:31.958Z,16.18
2018-12-06T20:00:00.503Z,16.19
2018-12-06T20:02:29.162Z,16.21
2018-12-06T20:04:57.648Z,16.22
2018-12-06T20:07:26.226Z,16.26
2018-12-06T20:09:54.741Z,16.24
2018-12-06T20:12:23.364Z,16.22
2018-12-06T20:14:51.943Z,16.28
2018-12-06T20:17:20.504Z,16.27
2018-12-06T20:19:49.007Z,16.26
2018-12-06T20:22:17.585Z,16.28
2018-12-06T20:24:46.068Z,16.29
2018-12-06T20:27:14.929Z,16.33
2018-12-06T20:29:43.429Z,16.34
2018-12-06T20:32:14.913Z,16.31
2018-12-06T20:34:42.505Z,16.32
2018-12-06T20:37:11.111Z,16.32
2018-12-06T20:39:39.675Z,16.37
2018-12-06T20:42:08.177Z,16.35
2018-12-06T20:44:36.786Z,16.34
2018-12-06T20:47:05.345Z,16.34
2018-12-06T20:49:33.784Z,16.36
2018-12-06T20:52:02.307Z,16.37
2018-12-06T20:54:31.274Z,16.37
2018-12-06T20:56:59.755Z,16.38
2018-12-06T20:59:28.306Z,16.41
2018-12-06T21:01:56.779Z,16.36
2018-12-06T21:04:25.258Z,16.36
2018-12-06T21:06:53.822Z,16.37
2018-12-06T21:09:22.320Z,16.34
2018-12-06T21:11:50.837Z,16.35
2018-12-06T21:14:22.195Z,16.31
2018-12-06T21:16:49.872Z,16.31
2018-12-06T21:19:18.395Z,16.33
2018-12-06T21:21:46.926Z,16.33
2018-12-06T21:24:15.538Z,16.30
2018-12-06T21:26:54.664Z,16.27
2018-12-06T21:48:20.832Z,16.26
2018-12-06T21:50:56.780Z,16.26
2018-12-06T21:53:36.342Z,16.27
2018-12-06T21:56:06.029Z,16.30
2018-12-06T21:58:34.535Z,16.31
2018-12-06T22:01:04.620Z,16.34
2018-12-06T22:03:39.185Z,16.36
2018-12-06T22:06:07.766Z,16.37
2018-12-06T22:08:36.313Z,16.35
2018-12-06T22:11:04.834Z,16.36
2018-12-06T22:13:33.297Z,16.40
2018-12-06T22:16:01.918Z,16.42
2018-12-06T22:18:30.415Z,16.42
2018-12-06T22:20:58.881Z,16.43
2018-12-06T22:23:27.421Z,16.44
2018-12-06T22:25:55.905Z,16.44
2018-12-06T22:28:24.343Z,16.46
2018-12-06T22:30:52.799Z,16.42
2018-12-06T22:33:21.257Z,16.45
2018-12-06T22:35:49.761Z,16.44
2018-12-06T22:38:18.233Z,16.46
2018-12-06T22:40:46.762Z,16.45
2018-12-06T22:43:15.403Z,16.44
2018-12-06T22:48:16.981Z,16.40
2018-12-06T22:50:45.501Z,16.38
2018-12-06T22:53:26.895Z,16.32
2018-12-06T22:55:56.399Z,16.31
2018-12-06T22:58:27.743Z,16.23
2018-12-06T23:00:59.199Z,16.26
2018-12-06T23:03:29.400Z,16.24
2018-12-06T23:05:58.026Z,16.22
2018-12-06T23:08:30.110Z,16.23
2018-12-06T23:11:02.031Z,16.19
2018-12-06T23:13:38.350Z,16.13
2018-12-06T23:16:11.883Z,16.16
2018-12-06T23:18:46.161Z,16.11
2018-12-06T23:21:14.860Z,16.07
2018-12-06T23:23:49.302Z,16.07
2018-12-06T23:26:24.648Z,16.03
2018-12-06T23:28:56.666Z,16.01
2018-12-06T23:31:29.329Z,15.95
2018-12-06T23:33:57.979Z,15.89
2018-12-06T23:36:40.669Z,15.91
2018-12-06T23:39:16.059Z,15.87
2018-12-06T23:41:45.710Z,15.88
2018-12-06T23:44:14.159Z,15.89
2018-12-06T23:46:42.670Z,15.91
2018-12-06T23:49:15.155Z,15.83
2018-12-06T23:51:49.216Z,15.80
2018-12-06T23:54:21.209Z,15.78
2018-12-06T23:56:53.892Z,15.77
2018-12-06T23:59:23.151Z,15.71
